sensor_id;sensor_type;location;lat;lon;timestamp;pressure;altitude;pressure_sealevel;temperature;humidity
38038;BME280;23843;51.320;12.340;2024-02-21T00:01:37;100948.69;;;10.45;64.08
38038;BME280;23843;51.320;12.340;2024-02-21T00:04:03;100942.31;;;10.44;63.70
38038;BME280;23843;51.320;12.340;2024-02-21T00:06:28;100947.88;;;10.44;63.97
38038;BME280;23843;51.320;12.340;2024-02-21T00:08:54;100939.75;;;10.43;64.00
38038;BME280;23843;51.320;12.340;2024-02-21T00:11:19;100929.50;;;10.43;64.06
38038;BME280;23843;51.320;12.340;2024-02-21T00:13:45;100928.63;;;10.43;63.56
38038;BME280;23843;51.320;12.340;2024-02-21T00:16:12;100921.38;;;10.42;63.92
38038;BME280;23843;51.320;12.340;2024-02-21T00:18:37;100921.59;;;10.40;64.15
38038;BME280;23843;51.320;12.340;2024-02-21T00:21:03;100912.41;;;10.40;63.87
38038;BME280;23843;51.320;12.340;2024-02-21T00:23:28;100907.91;;;10.39;63.99
38038;BME280;23843;51.320;12.340;2024-02-21T00:25:54;100912.41;;;10.40;64.25
38038;BME280;23843;51.320;12.340;2024-02-21T00:28:20;100905.13;;;10.39;64.05
38038;BME280;23843;51.320;12.340;2024-02-21T00:30:45;100900.63;;;10.38;64.01
38038;BME280;23843;51.320;12.340;2024-02-21T00:33:12;100907.28;;;10.37;63.96
38038;BME280;23843;51.320;12.340;2024-02-21T00:35:37;100902.59;;;10.37;64.02
38038;BME280;23843;51.320;12.340;2024-02-21T00:38:03;100905.59;;;10.36;64.02
38038;BME280;23843;51.320;12.340;2024-02-21T00:40:28;100895.53;;;10.35;64.07
38038;BME280;23843;51.320;12.340;2024-02-21T00:42:54;100900.03;;;10.36;64.21
38038;BME280;23843;51.320;12.340;2024-02-21T00:45:19;100891.06;;;10.34;64.15
38038;BME280;23843;51.320;12.340;2024-02-21T00:47:45;100884.66;;;10.33;64.20
38038;BME280;23843;51.320;12.340;2024-02-21T00:50:12;100876.75;;;10.30;63.95
38038;BME280;23843;51.320;12.340;2024-02-21T00:52:38;100885.06;;;10.30;64.06
38038;BME280;23843;51.320;12.340;2024-02-21T00:55:04;100874.44;;;10.27;64.34
38038;BME280;23843;51.320;12.340;2024-02-21T00:57:29;100874.22;;;10.29;64.21
38038;BME280;23843;51.320;12.340;2024-02-21T00:59:55;100873.38;;;10.28;64.17
38038;BME280;23843;51.320;12.340;2024-02-21T01:02:20;100874.44;;;10.27;63.99
38038;BME280;23843;51.320;12.340;2024-02-21T01:04:46;100873.38;;;10.28;64.51
38038;BME280;23843;51.320;12.340;2024-02-21T01:07:13;100866.97;;;10.28;64.19
38038;BME280;23843;51.320;12.340;2024-02-21T01:09:38;100864.41;;;10.26;64.18
38038;BME280;23843;51.320;12.340;2024-02-21T01:12:04;100859.06;;;10.25;64.31
38038;BME280;23843;51.320;12.340;2024-02-21T01:14:30;100856.50;;;10.23;64.37
38038;BME280;23843;51.320;12.340;2024-02-21T01:16:55;100852.25;;;10.21;63.87
38038;BME280;23843;51.320;12.340;2024-02-21T01:19:21;100848.84;;;10.19;64.48
38038;BME280;23843;51.320;12.340;2024-02-21T01:21:46;100849.69;;;10.19;64.12
38038;BME280;23843;51.320;12.340;2024-02-21T01:24:13;100845.19;;;10.18;64.05
38038;BME280;23843;51.320;12.340;2024-02-21T01:26:39;100843.69;;;10.15;64.35
38038;BME280;23843;51.320;12.340;2024-02-21T01:29:04;100840.06;;;10.15;64.59
38038;BME280;23843;51.320;12.340;2024-02-21T01:31:30;100840.91;;;10.15;64.32
38038;BME280;23843;51.320;12.340;2024-02-21T01:33:55;100843.69;;;10.15;64.15
38038;BME280;23843;51.320;12.340;2024-02-21T01:36:21;100839.84;;;10.16;64.31
38038;BME280;23843;51.320;12.340;2024-02-21T01:38:46;100834.94;;;10.19;64.30
38038;BME280;23843;51.320;12.340;2024-02-21T01:41:13;100821.28;;;10.17;64.31
38038;BME280;23843;51.320;12.340;2024-02-21T01:43:39;100824.06;;;10.17;64.06
38038;BME280;23843;51.320;12.340;2024-02-21T01:46:04;100818.50;;;10.17;64.32
38038;BME280;23843;51.320;12.340;2024-02-21T01:48:30;100819.53;;;10.16;64.04
38038;BME280;23843;51.320;12.340;2024-02-21T01:50:56;100815.72;;;10.17;64.35
38038;BME280;23843;51.320;12.340;2024-02-21T01:53:24;100815.72;;;10.17;64.02
38038;BME280;23843;51.320;12.340;2024-02-21T01:55:50;100814.84;;;10.16;63.98
38038;BME280;23843;51.320;12.340;2024-02-21T01:58:18;100816.78;;;10.16;63.93
38038;BME280;23843;51.320;12.340;2024-02-21T02:00:46;100810.38;;;10.15;64.16
38038;BME280;23843;51.320;12.340;2024-02-21T02:03:13;100810.59;;;10.14;64.22
38038;BME280;23843;51.320;12.340;2024-02-21T02:05:39;100811.47;;;10.14;63.93
38038;BME280;23843;51.320;12.340;2024-02-21T02:08:06;100800.56;;;10.13;64.32
38038;BME280;23843;51.320;12.340;2024-02-21T02:10:31;100800.34;;;10.14;64.09
38038;BME280;23843;51.320;12.340;2024-02-21T02:12:57;100803.75;;;10.16;63.75
38038;BME280;23843;51.320;12.340;2024-02-21T02:15:24;100798.44;;;10.15;64.06
38038;BME280;23843;51.320;12.340;2024-02-21T02:17:49;100789.00;;;10.16;63.99
38038;BME280;23843;51.320;12.340;2024-02-21T02:20:15;100789.00;;;10.16;64.01
38038;BME280;23843;51.320;12.340;2024-02-21T02:22:42;100795.22;;;10.18;64.28
38038;BME280;23843;51.320;12.340;2024-02-21T02:25:10;100775.13;;;10.16;64.03
38038;BME280;23843;51.320;12.340;2024-02-21T02:27:41;100779.63;;;10.17;64.00
38038;BME280;23843;51.320;12.340;2024-02-21T02:30:08;100770.25;;;10.18;64.21
38038;BME280;23843;51.320;12.340;2024-02-21T02:32:33;100770.25;;;10.18;64.15
38038;BME280;23843;51.320;12.340;2024-02-21T02:34:59;100768.53;;;10.17;63.95
38038;BME280;23843;51.320;12.340;2024-02-21T02:37:24;100764.88;;;10.16;64.16
38038;BME280;23843;51.320;12.340;2024-02-21T02:39:50;100762.34;;;10.15;63.51
38038;BME280;23843;51.320;12.340;2024-02-21T02:42:17;100759.78;;;10.13;64.17
38038;BME280;23843;51.320;12.340;2024-02-21T02:44:42;100759.56;;;10.15;64.08
38038;BME280;23843;51.320;12.340;2024-02-21T02:47:08;100759.56;;;10.15;64.08
38038;BME280;23843;51.320;12.340;2024-02-21T02:49:34;100755.09;;;10.14;63.67
38038;BME280;23843;51.320;12.340;2024-02-21T02:51:59;100753.38;;;10.13;64.14
38038;BME280;23843;51.320;12.340;2024-02-21T02:54:25;100756.78;;;10.15;64.20
38038;BME280;23843;51.320;12.340;2024-02-21T02:56:50;100755.09;;;10.14;63.86
38038;BME280;23843;51.320;12.340;2024-02-21T02:59:17;100761.69;;;10.13;63.97
38038;BME280;23843;51.320;12.340;2024-02-21T03:01:43;100752.53;;;10.12;64.30
38038;BME280;23843;51.320;12.340;2024-02-21T03:04:08;100758.06;;;10.12;64.30
38038;BME280;23843;51.320;12.340;2024-02-21T03:06:34;100750.81;;;10.11;64.15
38038;BME280;23843;51.320;12.340;2024-02-21T03:08:59;100737.16;;;10.10;64.30
38038;BME280;23843;51.320;12.340;2024-02-21T03:11:25;100739.72;;;10.11;63.99
38038;BME280;23843;51.320;12.340;2024-02-21T03:13:50;100745.47;;;10.10;64.09
38038;BME280;23843;51.320;12.340;2024-02-21T03:16:18;100748.25;;;10.10;63.85
38038;BME280;23843;51.320;12.340;2024-02-21T03:18:43;100751.66;;;10.12;64.37
38038;BME280;23843;51.320;12.340;2024-02-21T03:21:09;100749.09;;;10.10;64.34
38038;BME280;23843;51.320;12.340;2024-02-21T03:23:34;100741.63;;;10.11;64.16
38038;BME280;23843;51.320;12.340;2024-02-21T03:26:00;100746.97;;;10.12;64.14
38038;BME280;23843;51.320;12.340;2024-02-21T03:28:25;100746.75;;;10.14;64.11
38038;BME280;23843;51.320;12.340;2024-02-21T03:30:51;100740.13;;;10.15;64.13
38038;BME280;23843;51.320;12.340;2024-02-21T03:33:17;100752.06;;;10.15;63.95
38038;BME280;23843;51.320;12.340;2024-02-21T03:35:43;100741.63;;;10.18;64.09
38038;BME280;23843;51.320;12.340;2024-02-21T03:38:08;100740.56;;;10.19;64.29
38038;BME280;23843;51.320;12.340;2024-02-21T03:40:34;100744.41;;;10.18;64.11
38038;BME280;23843;51.320;12.340;2024-02-21T03:42:59;100739.47;;;10.20;64.16
38038;BME280;23843;51.320;12.340;2024-02-21T03:45:25;100742.25;;;10.20;63.98
38038;BME280;23843;51.320;12.340;2024-02-21T03:47:50;100740.34;;;10.20;64.20
38038;BME280;23843;51.320;12.340;2024-02-21T03:50:17;100750.38;;;10.21;64.13
38038;BME280;23843;51.320;12.340;2024-02-21T03:52:43;100746.75;;;10.21;64.18
38038;BME280;23843;51.320;12.340;2024-02-21T03:55:08;100744.19;;;10.19;64.14
38038;BME280;23843;51.320;12.340;2024-02-21T03:57:34;100747.16;;;10.18;64.16
38038;BME280;23843;51.320;12.340;2024-02-21T03:59:59;100748.03;;;10.18;64.52
38038;BME280;23843;51.320;12.340;2024-02-21T04:02:25;100745.25;;;10.18;63.95
38038;BME280;23843;51.320;12.340;2024-02-21T04:04:50;100746.97;;;10.19;64.17
38038;BME280;23843;51.320;12.340;2024-02-21T04:07:17;100739.47;;;10.20;64.08
38038;BME280;23843;51.320;12.340;2024-02-21T04:09:43;100743.09;;;10.20;64.07
38038;BME280;23843;51.320;12.340;2024-02-21T04:12:08;100745.03;;;10.20;63.89
38038;BME280;23843;51.320;12.340;2024-02-21T04:14:34;100741.41;;;10.19;64.07
38038;BME280;23843;51.320;12.340;2024-02-21T04:16:59;100734.31;;;10.16;63.89
38038;BME280;23843;51.320;12.340;2024-02-21T04:19:25;100733.72;;;10.14;64.15
38038;BME280;23843;51.320;12.340;2024-02-21T04:21:50;100737.78;;;10.12;64.03
38038;BME280;23843;51.320;12.340;2024-02-21T04:24:17;100727.75;;;10.11;64.17
38038;BME280;23843;51.320;12.340;2024-02-21T04:26:42;100723.28;;;10.10;64.19
38038;BME280;23843;51.320;12.340;2024-02-21T04:29:08;100723.50;;;10.08;64.34
38038;BME280;23843;51.320;12.340;2024-02-21T04:31:34;100718.78;;;10.09;64.04
38038;BME280;23843;51.320;12.340;2024-02-21T04:33:59;100709.00;;;10.06;64.31
38038;BME280;23843;51.320;12.340;2024-02-21T04:36:25;100707.28;;;10.05;64.13
38038;BME280;23843;51.320;12.340;2024-02-21T04:38:50;100694.28;;;10.06;64.45
38038;BME280;23843;51.320;12.340;2024-02-21T04:41:17;100700.88;;;10.05;64.39
38038;BME280;23843;51.320;12.340;2024-02-21T04:43:42;100705.59;;;10.04;64.34
38038;BME280;23843;51.320;12.340;2024-02-21T04:46:08;100706.44;;;10.05;64.26
38038;BME280;23843;51.320;12.340;2024-02-21T04:48:33;100703.88;;;10.03;64.07
38038;BME280;23843;51.320;12.340;2024-02-21T04:50:59;100701.09;;;10.03;64.17
38038;BME280;23843;51.320;12.340;2024-02-21T04:53:24;100697.47;;;10.03;64.41
38038;BME280;23843;51.320;12.340;2024-02-21T04:55:50;100696.41;;;10.04;64.37
38038;BME280;23843;51.320;12.340;2024-02-21T04:58:17;100679.53;;;10.05;64.41
38038;BME280;23843;51.320;12.340;2024-02-21T05:00:42;100674.19;;;10.04;64.25
38038;BME280;23843;51.320;12.340;2024-02-21T05:03:08;100673.13;;;10.05;64.52
38038;BME280;23843;51.320;12.340;2024-02-21T05:05:33;100670.34;;;10.05;64.40
38038;BME280;23843;51.320;12.340;2024-02-21T05:07:58;100667.38;;;10.06;64.34
38038;BME280;23843;51.320;12.340;2024-02-21T05:10:24;100663.75;;;10.06;64.44
38038;BME280;23843;51.320;12.340;2024-02-21T05:12:49;100663.75;;;10.06;64.47
38038;BME280;23843;51.320;12.340;2024-02-21T05:15:17;100658.41;;;10.04;64.39
38038;BME280;23843;51.320;12.340;2024-02-21T05:17:42;100648.38;;;10.03;64.54
38038;BME280;23843;51.320;12.340;2024-02-21T05:20:09;100646.66;;;10.02;64.45
38038;BME280;23843;51.320;12.340;2024-02-21T05:22:34;100645.81;;;10.02;64.32
38038;BME280;23843;51.320;12.340;2024-02-21T05:25:00;100640.03;;;10.03;64.87
38038;BME280;23843;51.320;12.340;2024-02-21T05:27:25;100648.16;;;10.05;64.80
38038;BME280;23843;51.320;12.340;2024-02-21T05:29:50;100639.59;;;10.06;64.60
38038;BME280;23843;51.320;12.340;2024-02-21T05:32:17;100639.38;;;10.08;64.59
38038;BME280;23843;51.320;12.340;2024-02-21T05:34:43;100637.22;;;10.10;64.58
38038;BME280;23843;51.320;12.340;2024-02-21T05:37:08;100637.44;;;10.08;64.60
38038;BME280;23843;51.320;12.340;2024-02-21T05:39:34;100635.75;;;10.07;64.75
38038;BME280;23843;51.320;12.340;2024-02-21T05:41:59;100619.09;;;10.07;64.68
38038;BME280;23843;51.320;12.340;2024-02-21T05:44:24;100629.97;;;10.09;64.77
38038;BME280;23843;51.320;12.340;2024-02-21T05:46:50;100630.22;;;10.07;64.52
38038;BME280;23843;51.320;12.340;2024-02-21T05:49:17;100631.88;;;10.08;64.61
38038;BME280;23843;51.320;12.340;2024-02-21T05:51:42;100628.03;;;10.09;64.84
38038;BME280;23843;51.320;12.340;2024-02-21T05:54:08;100631.06;;;10.08;64.90
38038;BME280;23843;51.320;12.340;2024-02-21T05:56:33;100631.88;;;10.08;64.94
38038;BME280;23843;51.320;12.340;2024-02-21T05:58:59;100627.19;;;10.09;64.51
38038;BME280;23843;51.320;12.340;2024-02-21T06:01:25;100626.09;;;10.10;64.80
38038;BME280;23843;51.320;12.340;2024-02-21T06:03:50;100618.84;;;10.09;64.56
38038;BME280;23843;51.320;12.340;2024-02-21T06:06:17;100605.66;;;10.04;64.79
38038;BME280;23843;51.320;12.340;2024-02-21T06:08:43;100604.19;;;10.02;64.80
38038;BME280;23843;51.320;12.340;2024-02-21T06:11:08;100596.53;;;9.97;64.78
38038;BME280;23843;51.320;12.340;2024-02-21T06:13:38;100601.69;;;9.94;65.10
38038;BME280;23843;51.320;12.340;2024-02-21T06:16:05;100602.16;;;9.91;64.89
38038;BME280;23843;51.320;12.340;2024-02-21T06:18:30;100593.41;;;9.87;65.10
38038;BME280;23843;51.320;12.340;2024-02-21T06:20:56;100590.47;;;9.82;65.12
38038;BME280;23843;51.320;12.340;2024-02-21T06:23:22;100591.16;;;9.77;65.15
38038;BME280;23843;51.320;12.340;2024-02-21T06:25:48;100587.31;;;9.72;64.83
38038;BME280;23843;51.320;12.340;2024-02-21T06:28:13;100600.38;;;9.71;65.44
38038;BME280;23843;51.320;12.340;2024-02-21T06:30:40;100610.84;;;9.69;65.36
38038;BME280;23843;51.320;12.340;2024-02-21T06:33:05;100609.13;;;9.68;65.30
38038;BME280;23843;51.320;12.340;2024-02-21T06:35:31;100614.69;;;9.68;65.30
38038;BME280;23843;51.320;12.340;2024-02-21T06:37:56;100624.25;;;9.72;65.35
38038;BME280;23843;51.320;12.340;2024-02-21T06:40:23;100623.81;;;9.75;65.21
38038;BME280;23843;51.320;12.340;2024-02-21T06:42:50;100616.34;;;9.76;65.14
38038;BME280;23843;51.320;12.340;2024-02-21T06:45:16;100628.06;;;9.78;65.18
38038;BME280;23843;51.320;12.340;2024-02-21T06:47:42;100636.41;;;9.78;65.26
38038;BME280;23843;51.320;12.340;2024-02-21T06:50:08;100641.47;;;9.81;64.94
38038;BME280;23843;51.320;12.340;2024-02-21T06:52:34;100643.41;;;9.81;65.00
38038;BME280;23843;51.320;12.340;2024-02-21T06:55:00;100662.38;;;9.84;65.08
38038;BME280;23843;51.320;12.340;2024-02-21T06:57:28;100666.66;;;9.86;65.38
38038;BME280;23843;51.320;12.340;2024-02-21T06:59:54;100661.94;;;9.87;65.20
38038;BME280;23843;51.320;12.340;2024-02-21T07:02:19;100660.63;;;9.89;65.04
38038;BME280;23843;51.320;12.340;2024-02-21T07:04:45;100671.53;;;9.91;64.74
38038;BME280;23843;51.320;12.340;2024-02-21T07:07:10;100669.59;;;9.91;64.91
38038;BME280;23843;51.320;12.340;2024-02-21T07:09:36;100661.28;;;9.91;64.96
38038;BME280;23843;51.320;12.340;2024-02-21T07:12:01;100684.31;;;9.92;64.95
38038;BME280;23843;51.320;12.340;2024-02-21T07:14:29;100667.47;;;9.93;65.13
38038;BME280;23843;51.320;12.340;2024-02-21T07:16:54;100670.00;;;9.95;65.18
38038;BME280;23843;51.320;12.340;2024-02-21T07:19:20;100667.84;;;9.97;64.93
38038;BME280;23843;51.320;12.340;2024-02-21T07:21:45;100669.56;;;9.98;64.98
38038;BME280;23843;51.320;12.340;2024-02-21T07:24:10;100673.81;;;10.00;64.91
38038;BME280;23843;51.320;12.340;2024-02-21T07:26:36;100681.91;;;10.02;64.91
38038;BME280;23843;51.320;12.340;2024-02-21T07:29:02;100678.03;;;10.03;65.32
38038;BME280;23843;51.320;12.340;2024-02-21T07:31:29;100672.50;;;10.03;64.87
38038;BME280;23843;51.320;12.340;2024-02-21T07:33:54;100678.69;;;10.05;64.85
38038;BME280;23843;51.320;12.340;2024-02-21T07:36:28;100665.88;;;10.04;64.76
38038;BME280;23843;51.320;12.340;2024-02-21T07:38:54;100674.63;;;10.07;65.05
38038;BME280;23843;51.320;12.340;2024-02-21T07:41:19;100674.38;;;10.09;64.87
38038;BME280;23843;51.320;12.340;2024-02-21T07:43:45;100677.56;;;10.12;64.75
38038;BME280;23843;51.320;12.340;2024-02-21T07:46:10;100666.47;;;10.12;65.01
38038;BME280;23843;51.320;12.340;2024-02-21T07:48:37;100668.78;;;10.15;65.00
38038;BME280;23843;51.320;12.340;2024-02-21T07:51:03;100658.50;;;10.16;64.67
38038;BME280;23843;51.320;12.340;2024-02-21T07:53:28;100660.03;;;10.19;64.87
38038;BME280;23843;51.320;12.340;2024-02-21T07:55:54;100651.47;;;10.20;65.04
38038;BME280;23843;51.320;12.340;2024-02-21T07:58:19;100646.78;;;10.21;64.96
38038;BME280;23843;51.320;12.340;2024-02-21T08:00:45;100639.91;;;10.23;64.86
38038;BME280;23843;51.320;12.340;2024-02-21T08:03:10;100640.53;;;10.25;64.63
38038;BME280;23843;51.320;12.340;2024-02-21T08:05:37;100627.50;;;10.26;64.81
38038;BME280;23843;51.320;12.340;2024-02-21T08:08:03;100627.28;;;10.27;64.64
38038;BME280;23843;51.320;12.340;2024-02-21T08:10:28;100614.25;;;10.28;64.88
38038;BME280;23843;51.320;12.340;2024-02-21T08:12:54;100610.41;;;10.29;64.90
38038;BME280;23843;51.320;12.340;2024-02-21T08:15:19;100625.75;;;10.31;64.89
38038;BME280;23843;51.320;12.340;2024-02-21T08:17:45;100612.72;;;10.32;64.66
38038;BME280;23843;51.320;12.340;2024-02-21T08:20:10;100619.97;;;10.33;64.80
38038;BME280;23843;51.320;12.340;2024-02-21T08:22:38;100621.91;;;10.32;64.83
38038;BME280;23843;51.320;12.340;2024-02-21T08:25:04;100614.41;;;10.33;64.76
38038;BME280;23843;51.320;12.340;2024-02-21T08:27:30;100612.28;;;10.35;64.67
38038;BME280;23843;51.320;12.340;2024-02-21T08:29:55;100610.13;;;10.37;64.72
38038;BME280;23843;51.320;12.340;2024-02-21T08:32:21;100606.03;;;10.39;64.62
38038;BME280;23843;51.320;12.340;2024-02-21T08:34:46;100604.94;;;10.40;64.65
38038;BME280;23843;51.320;12.340;2024-02-21T08:37:12;100601.09;;;10.41;64.87
38038;BME280;23843;51.320;12.340;2024-02-21T08:39:38;100603.88;;;10.41;64.55
38038;BME280;23843;51.320;12.340;2024-02-21T08:42:04;100600.88;;;10.43;65.08
38038;BME280;23843;51.320;12.340;2024-02-21T08:44:30;100608.13;;;10.44;64.73
38038;BME280;23843;51.320;12.340;2024-02-21T08:46:55;100608.97;;;10.44;64.54
38038;BME280;23843;51.320;12.340;2024-02-21T08:49:21;100620.69;;;10.46;64.58
38038;BME280;23843;51.320;12.340;2024-02-21T08:51:46;100610.44;;;10.47;64.78
38038;BME280;23843;51.320;12.340;2024-02-21T08:54:12;100611.50;;;10.46;65.04
38038;BME280;23843;51.320;12.340;2024-02-21T08:56:39;100614.91;;;10.48;65.11
38038;BME280;23843;51.320;12.340;2024-02-21T08:59:04;100603.59;;;10.49;64.51
38038;BME280;23843;51.320;12.340;2024-02-21T09:01:29;100610.00;;;10.50;65.00
38038;BME280;23843;51.320;12.340;2024-02-21T09:03:55;100610.00;;;10.50;65.04
38038;BME280;23843;51.320;12.340;2024-02-21T09:06:20;100602.25;;;10.52;64.97
38038;BME280;23843;51.320;12.340;2024-02-21T09:08:46;100609.50;;;10.53;64.73
38038;BME280;23843;51.320;12.340;2024-02-21T09:11:11;100612.69;;;10.57;65.05
38038;BME280;23843;51.320;12.340;2024-02-21T09:13:38;100608.63;;;10.59;65.00
38038;BME280;23843;51.320;12.340;2024-02-21T09:16:04;100602.59;;;10.62;65.14
38038;BME280;23843;51.320;12.340;2024-02-21T09:18:30;100619.03;;;10.64;65.10
38038;BME280;23843;51.320;12.340;2024-02-21T09:20:55;100616.88;;;10.66;64.79
38038;BME280;23843;51.320;12.340;2024-02-21T09:23:24;100610.22;;;10.67;64.80
38038;BME280;23843;51.320;12.340;2024-02-21T09:25:49;100609.16;;;10.68;65.06
38038;BME280;23843;51.320;12.340;2024-02-21T09:28:15;100607.22;;;10.68;64.68
38038;BME280;23843;51.320;12.340;2024-02-21T09:30:41;100600.81;;;10.68;64.71
38038;BME280;23843;51.320;12.340;2024-02-21T09:33:07;100607.84;;;10.70;64.54
38038;BME280;23843;51.320;12.340;2024-02-21T09:35:32;100616.81;;;10.72;64.79
38038;BME280;23843;51.320;12.340;2024-02-21T09:37:58;100618.53;;;10.73;65.10
38038;BME280;23843;51.320;12.340;2024-02-21T09:40:23;100608.25;;;10.74;64.67
38038;BME280;23843;51.320;12.340;2024-02-21T09:42:50;100605.47;;;10.74;64.90
38038;BME280;23843;51.320;12.340;2024-02-21T09:45:24;100599.91;;;10.74;64.95
38038;BME280;23843;51.320;12.340;2024-02-21T09:48:07;100601.59;;;10.75;65.20
38038;BME280;23843;51.320;12.340;2024-02-21T09:50:38;100606.91;;;10.76;65.06
38038;BME280;23843;51.320;12.340;2024-02-21T09:53:06;100602.84;;;10.79;64.60
38038;BME280;23843;51.320;12.340;2024-02-21T09:55:33;100601.78;;;10.80;64.59
38038;BME280;23843;51.320;12.340;2024-02-21T09:57:59;100594.88;;;10.82;65.04
38038;BME280;23843;51.320;12.340;2024-02-21T10:00:24;100598.91;;;10.86;64.85
38038;BME280;23843;51.320;12.340;2024-02-21T10:02:50;100600.34;;;10.89;64.72
38038;BME280;23843;51.320;12.340;2024-02-21T10:05:17;100600.75;;;10.92;64.71
38038;BME280;23843;51.320;12.340;2024-02-21T10:07:42;100596.41;;;10.97;65.04
38038;BME280;23843;51.320;12.340;2024-02-21T10:10:08;100589.56;;;10.99;64.90
38038;BME280;23843;51.320;12.340;2024-02-21T10:12:34;100582.44;;;11.03;64.96
38038;BME280;23843;51.320;12.340;2024-02-21T10:15:00;100581.34;;;11.04;64.62
38038;BME280;23843;51.320;12.340;2024-02-21T10:17:26;100578.34;;;11.06;64.49
38038;BME280;23843;51.320;12.340;2024-02-21T10:19:51;100575.97;;;11.09;64.85
38038;BME280;23843;51.320;12.340;2024-02-21T10:22:18;100579.97;;;11.13;64.49
38038;BME280;23843;51.320;12.340;2024-02-21T10:24:43;100580.34;;;11.17;64.38
38038;BME280;23843;51.320;12.340;2024-02-21T10:27:09;100570.69;;;11.19;64.65
38038;BME280;23843;51.320;12.340;2024-02-21T10:29:35;100570.69;;;11.19;64.16
38038;BME280;23843;51.320;12.340;2024-02-21T10:32:07;100568.28;;;11.23;64.18
38038;BME280;23843;51.320;12.340;2024-02-21T10:34:33;100568.91;;;11.25;64.57
38038;BME280;23843;51.320;12.340;2024-02-21T10:37:00;100563.72;;;11.28;64.74
38038;BME280;23843;51.320;12.340;2024-02-21T10:39:27;100558.16;;;11.28;64.11
38038;BME280;23843;51.320;12.340;2024-02-21T10:41:54;100554.28;;;11.29;64.64
38038;BME280;23843;51.320;12.340;2024-02-21T10:44:21;100551.88;;;11.33;64.30
38038;BME280;23843;51.320;12.340;2024-02-21T10:46:47;100557.59;;;11.38;64.42
38038;BME280;23843;51.320;12.340;2024-02-21T10:49:18;100547.06;;;11.40;64.10
38038;BME280;23843;51.320;12.340;2024-02-21T10:51:48;100553.03;;;11.44;64.69
38038;BME280;23843;51.320;12.340;2024-02-21T10:54:26;100550.84;;;11.46;64.12
38038;BME280;23843;51.320;12.340;2024-02-21T10:56:57;100549.78;;;11.47;64.34
38038;BME280;23843;51.320;12.340;2024-02-21T10:59:23;100540.31;;;11.48;64.13
38038;BME280;23843;51.320;12.340;2024-02-21T11:01:50;100538.38;;;11.48;64.54
38038;BME280;23843;51.320;12.340;2024-02-21T11:04:16;100535.16;;;11.51;63.77
38038;BME280;23843;51.320;12.340;2024-02-21T11:06:42;100525.72;;;11.52;64.01
38038;BME280;23843;51.320;12.340;2024-02-21T11:09:09;100519.66;;;11.55;64.30
38038;BME280;23843;51.320;12.340;2024-02-21T11:11:36;100511.69;;;11.59;64.20
38038;BME280;23843;51.320;12.340;2024-02-21T11:14:11;100509.28;;;11.62;63.88
38038;BME280;23843;51.320;12.340;2024-02-21T11:16:37;100507.50;;;11.68;63.94
38038;BME280;23843;51.320;12.340;2024-02-21T11:19:07;100494.53;;;11.74;63.96
38038;BME280;23843;51.320;12.340;2024-02-21T11:21:34;100482.25;;;11.81;64.08
38038;BME280;23843;51.320;12.340;2024-02-21T11:23:59;100482.13;;;11.88;64.09
38038;BME280;23843;51.320;12.340;2024-02-21T11:26:28;100474.97;;;11.92;63.79
38038;BME280;23843;51.320;12.340;2024-02-21T11:28:59;100469.28;;;11.98;64.29
38038;BME280;23843;51.320;12.340;2024-02-21T11:31:26;100458.28;;;12.03;63.77
38038;BME280;23843;51.320;12.340;2024-02-21T11:33:52;100455.59;;;12.08;63.95
38038;BME280;23843;51.320;12.340;2024-02-21T11:36:24;100449.56;;;12.12;63.82
38038;BME280;23843;51.320;12.340;2024-02-21T11:38:49;100449.28;;;12.13;63.59
38038;BME280;23843;51.320;12.340;2024-02-21T11:41:16;100439.84;;;12.14;63.93
38038;BME280;23843;51.320;12.340;2024-02-21T11:43:41;100428.13;;;12.12;64.12
38038;BME280;23843;51.320;12.340;2024-02-21T11:46:07;100431.25;;;12.16;63.66
38038;BME280;23843;51.320;12.340;2024-02-21T11:48:34;100431.25;;;12.16;63.74
38038;BME280;23843;51.320;12.340;2024-02-21T11:50:59;100427.38;;;12.17;64.17
38038;BME280;23843;51.320;12.340;2024-02-21T11:53:25;100411.75;;;12.16;63.69
38038;BME280;23843;51.320;12.340;2024-02-21T11:55:50;100408.97;;;12.16;64.02
38038;BME280;23843;51.320;12.340;2024-02-21T11:58:16;100399.53;;;12.17;63.70
38038;BME280;23843;51.320;12.340;2024-02-21T12:00:41;100392.66;;;12.19;63.87
38038;BME280;23843;51.320;12.340;2024-02-21T12:03:07;100396.00;;;12.21;63.59
38038;BME280;23843;51.320;12.340;2024-02-21T12:05:34;100391.03;;;12.23;64.06
38038;BME280;23843;51.320;12.340;2024-02-21T12:08:00;100388.97;;;12.30;63.60
38038;BME280;23843;51.320;12.340;2024-02-21T12:10:26;100384.09;;;12.37;63.95
38038;BME280;23843;51.320;12.340;2024-02-21T12:12:51;100381.41;;;12.42;63.44
38038;BME280;23843;51.320;12.340;2024-02-21T12:15:18;100382.38;;;12.48;63.39
38038;BME280;23843;51.320;12.340;2024-02-21T12:17:44;100381.88;;;12.51;63.93
38038;BME280;23843;51.320;12.340;2024-02-21T12:20:09;100372.44;;;12.52;63.53
38038;BME280;23843;51.320;12.340;2024-02-21T12:22:37;100368.78;;;12.52;63.56
38038;BME280;23843;51.320;12.340;2024-02-21T12:25:03;100359.59;;;12.51;63.53
38038;BME280;23843;51.320;12.340;2024-02-21T12:27:28;100360.78;;;12.55;63.41
38038;BME280;23843;51.320;12.340;2024-02-21T12:29:54;100350.81;;;12.59;63.84
38038;BME280;23843;51.320;12.340;2024-02-21T12:32:19;100348.97;;;12.65;63.75
38038;BME280;23843;51.320;12.340;2024-02-21T12:34:45;100342.69;;;12.69;63.54